createdAt,value
2022-07-29T00:01:55.177Z,18.20
2022-07-29T00:04:22.289Z,18.20
2022-07-29T00:06:49.255Z,18.20
2022-07-29T00:09:15.937Z,18.30
2022-07-29T00:11:42.698Z,18.30
2022-07-29T00:14:09.484Z,18.40
2022-07-29T00:16:36.297Z,18.40
2022-07-29T00:19:03.086Z,18.30
2022-07-29T00:21:30.431Z,18.20
2022-07-29T00:23:57.179Z,18.30
2022-07-29T00:26:23.935Z,18.40
2022-07-29T00:28:50.622Z,18.40
2022-07-29T00:31:17.397Z,18.40
2022-07-29T00:33:44.137Z,18.30
2022-07-29T00:36:10.832Z,18.30
2022-07-29T00:38:37.528Z,18.40
2022-07-29T00:41:04.256Z,18.50
2022-07-29T00:43:31.011Z,18.50
2022-07-29T00:45:57.720Z,18.50
2022-07-29T00:48:24.458Z,18.40
2022-07-29T00:50:51.591Z,18.30
2022-07-29T00:53:18.337Z,18.30
2022-07-29T00:55:45.066Z,18.30
2022-07-29T00:58:13.031Z,18.30
2022-07-29T01:00:41.711Z,18.40
2022-07-29T01:03:08.920Z,18.40
2022-07-29T01:05:50.887Z,18.40
2022-07-29T01:08:19.317Z,18.10
2022-07-29T01:10:46.751Z,18.10
2022-07-29T01:13:14.360Z,18.10
2022-07-29T01:15:49.125Z,17.90
2022-07-29T01:18:18.276Z,18.00
2022-07-29T01:21:07.794Z,18.10
2022-07-29T01:23:46.844Z,18.10
2022-07-29T01:26:13.641Z,18.00
2022-07-29T01:29:00.911Z,18.10
2022-07-29T01:31:36.494Z,18.20
2022-07-29T01:34:06.811Z,18.20
2022-07-29T01:36:36.173Z,18.10
2022-07-29T01:39:15.074Z,18.00
2022-07-29T01:41:46.151Z,17.90
2022-07-29T01:44:16.276Z,18.00
2022-07-29T01:46:50.176Z,18.10
2022-07-29T01:49:22.457Z,18.00
2022-07-29T01:51:53.910Z,18.00
2022-07-29T01:54:23.737Z,18.00
2022-07-29T01:56:51.945Z,18.00
2022-07-29T01:59:19.544Z,17.80
2022-07-29T02:01:49.445Z,17.70
2022-07-29T02:04:29.446Z,17.70
2022-07-29T02:06:59.716Z,17.60
2022-07-29T02:09:26.915Z,17.50
2022-07-29T02:11:55.148Z,17.50
2022-07-29T02:14:23.426Z,17.30
2022-07-29T02:16:52.860Z,17.30
2022-07-29T02:19:20.699Z,17.30
2022-07-29T02:21:47.694Z,17.30
2022-07-29T02:24:15.219Z,17.20
2022-07-29T02:26:42.694Z,17.10
2022-07-29T02:29:10.396Z,17.20
2022-07-29T02:31:37.624Z,17.10
2022-07-29T02:34:06.012Z,17.10
2022-07-29T02:36:33.744Z,16.90
2022-07-29T02:39:01.789Z,16.90
2022-07-29T02:41:38.276Z,16.70
2022-07-29T02:44:07.316Z,16.80
2022-07-29T02:46:36.587Z,16.80
2022-07-29T02:49:08.092Z,16.70
2022-07-29T02:51:41.368Z,16.70
2022-07-29T02:54:11.981Z,16.50
2022-07-29T02:56:39.564Z,16.40
2022-07-29T02:59:10.133Z,16.50
2022-07-29T03:01:39.624Z,16.50
2022-07-29T03:04:07.035Z,16.60
2022-07-29T03:06:38.520Z,16.70
2022-07-29T03:09:12.874Z,16.70
2022-07-29T03:11:49.165Z,16.60
2022-07-29T03:14:18.719Z,16.40
2022-07-29T03:16:45.995Z,16.20
2022-07-29T03:19:12.885Z,16.20
2022-07-29T03:21:39.807Z,16.30
2022-07-29T03:24:10.277Z,16.30
2022-07-29T03:26:37.659Z,16.10
2022-07-29T03:29:04.365Z,16.00
2022-07-29T03:31:31.141Z,16.00
2022-07-29T03:33:58.513Z,15.90
2022-07-29T03:36:25.817Z,16.00
2022-07-29T03:38:53.095Z,16.20
2022-07-29T03:41:22.464Z,16.30
2022-07-29T03:43:50.762Z,16.40
2022-07-29T03:46:18.501Z,16.30
2022-07-29T03:48:48.184Z,16.20
2022-07-29T03:51:15.190Z,16.00
2022-07-29T03:53:41.925Z,16.10
2022-07-29T03:56:09.994Z,15.90
2022-07-29T03:58:37.454Z,15.80
2022-07-29T04:01:04.220Z,15.90
2022-07-29T04:03:30.978Z,15.90
2022-07-29T04:06:02.237Z,16.10
2022-07-29T04:08:28.992Z,16.20
2022-07-29T04:10:55.891Z,16.40
2022-07-29T04:13:22.702Z,16.50
2022-07-29T04:15:49.508Z,16.60
2022-07-29T04:18:16.229Z,16.60
2022-07-29T04:20:42.972Z,16.50
2022-07-29T04:23:09.669Z,16.20
2022-07-29T04:25:40.044Z,16.10
2022-07-29T04:28:07.203Z,16.10
2022-07-29T04:30:34.568Z,16.00
2022-07-29T04:33:06.283Z,16.00
2022-07-29T04:35:38.266Z,16.30
2022-07-29T04:38:06.412Z,16.50
2022-07-29T04:40:34.115Z,16.30
2022-07-29T04:43:01.843Z,16.40
2022-07-29T04:45:32.554Z,16.50
2022-07-29T04:47:59.259Z,16.60
2022-07-29T04:50:26.015Z,16.80
2022-07-29T04:52:52.776Z,16.90
2022-07-29T04:55:19.559Z,16.90
2022-07-29T04:57:46.276Z,16.80
2022-07-29T05:00:13.184Z,16.80
2022-07-29T05:02:40.188Z,17.00
2022-07-29T05:05:07.173Z,17.10
2022-07-29T05:07:33.888Z,17.30
2022-07-29T05:10:00.623Z,17.40
2022-07-29T05:12:27.508Z,17.50
2022-07-29T05:14:54.299Z,17.50
2022-07-29T05:17:21.094Z,17.60
2022-07-29T05:19:47.867Z,17.70
2022-07-29T05:22:14.573Z,17.80
2022-07-29T05:24:41.765Z,17.80
2022-07-29T05:27:08.491Z,17.90
2022-07-29T05:29:43.259Z,17.90
2022-07-29T05:32:12.855Z,17.90
2022-07-29T05:34:50.070Z,18.10
2022-07-29T05:37:18.747Z,18.20
2022-07-29T05:39:48.799Z,18.30
2022-07-29T05:42:17.474Z,18.50
2022-07-29T05:44:44.231Z,18.60
2022-07-29T05:47:10.911Z,18.70
2022-07-29T05:49:37.686Z,18.80
2022-07-29T05:52:04.642Z,18.90
2022-07-29T05:54:31.628Z,19.00
2022-07-29T05:56:58.340Z,19.10
2022-07-29T05:59:30.082Z,19.30
2022-07-29T06:01:58.218Z,19.40
2022-07-29T06:04:25.271Z,19.40
2022-07-29T06:06:52.082Z,19.70
2022-07-29T06:09:18.820Z,19.80
2022-07-29T06:11:45.612Z,20.00
2022-07-29T06:14:12.463Z,20.00
2022-07-29T06:16:39.339Z,20.10
2022-07-29T06:19:06.507Z,20.20
2022-07-29T06:21:34.571Z,20.30
2022-07-29T06:24:05.726Z,20.30
2022-07-29T06:26:37.759Z,20.50
2022-07-29T06:29:06.706Z,20.60
2022-07-29T06:31:33.503Z,20.60
2022-07-29T06:34:00.218Z,20.70
2022-07-29T06:36:27.366Z,20.80
2022-07-29T06:38:54.672Z,21.20
2022-07-29T06:41:24.080Z,21.40
2022-07-29T06:43:55.338Z,21.50
2022-07-29T06:46:23.960Z,21.50
2022-07-29T06:48:51.404Z,21.50
2022-07-29T06:51:22.908Z,21.50
2022-07-29T06:53:59.501Z,21.70
2022-07-29T06:56:38.953Z,22.00
2022-07-29T06:59:10.797Z,22.10
2022-07-29T07:01:38.285Z,22.20
2022-07-29T07:04:05.164Z,22.60
2022-07-29T07:06:31.904Z,22.90
2022-07-29T07:08:58.774Z,22.80
2022-07-29T07:11:25.535Z,22.80
2022-07-29T07:13:52.235Z,22.90
2022-07-29T07:16:19.237Z,23.00
2022-07-29T07:18:46.359Z,23.10
2022-07-29T07:21:18.779Z,23.30
2022-07-29T07:23:46.516Z,23.50
2022-07-29T07:26:13.280Z,23.40
2022-07-29T07:28:40.392Z,23.30
2022-07-29T07:31:07.094Z,23.30
2022-07-29T07:33:34.835Z,23.40
2022-07-29T07:36:01.527Z,23.60
2022-07-29T07:38:28.300Z,23.80
2022-07-29T07:40:55.053Z,23.80
2022-07-29T07:43:22.938Z,23.90
2022-07-29T07:45:55.788Z,24.00
2022-07-29T07:48:22.541Z,24.30
2022-07-29T07:50:50.376Z,24.30
2022-07-29T07:53:17.284Z,24.20
2022-07-29T07:56:09.271Z,24.50
2022-07-29T07:58:36.429Z,24.60
2022-07-29T08:01:03.706Z,24.70
2022-07-29T08:03:30.466Z,24.60
2022-07-29T08:05:57.237Z,24.60
2022-07-29T08:08:23.946Z,24.50
2022-07-29T08:10:53.552Z,24.80
2022-07-29T08:13:24.617Z,24.90
2022-07-29T08:16:12.299Z,24.90
2022-07-29T08:18:40.011Z,24.90
2022-07-29T08:21:07.290Z,24.90
2022-07-29T08:23:45.972Z,25.20
2022-07-29T08:26:14.346Z,25.40
2022-07-29T08:28:42.704Z,25.50
2022-07-29T08:31:09.387Z,25.60
2022-07-29T08:33:36.070Z,25.80
2022-07-29T08:36:03.311Z,25.60
2022-07-29T08:38:30.123Z,25.60
2022-07-29T08:40:56.863Z,25.70
2022-07-29T08:43:23.887Z,25.90
2022-07-29T08:45:51.512Z,25.90
2022-07-29T08:48:23.003Z,26.10
2022-07-29T08:50:53.327Z,26.00
2022-07-29T08:53:20.374Z,26.10
2022-07-29T08:55:48.428Z,26.30
2022-07-29T08:58:15.738Z,26.40
2022-07-29T09:00:44.272Z,26.30
2022-07-29T09:03:15.641Z,26.30
2022-07-29T09:05:47.742Z,26.30
2022-07-29T09:08:15.782Z,26.60
2022-07-29T09:10:42.655Z,26.90
2022-07-29T09:13:09.376Z,26.60
2022-07-29T09:15:36.056Z,26.30
2022-07-29T09:18:03.222Z,26.20
2022-07-29T09:20:48.664Z,26.00
2022-07-29T09:23:23.027Z,25.80
2022-07-29T09:25:51.233Z,25.80
2022-07-29T09:28:18.659Z,25.70
2022-07-29T09:30:52.240Z,25.60
2022-07-29T09:33:19.182Z,25.50
2022-07-29T09:35:56.613Z,25.40
2022-07-29T09:38:24.551Z,25.30
2022-07-29T09:41:05.998Z,25.30
2022-07-29T09:43:33.973Z,25.30
2022-07-29T09:46:18.996Z,25.20
2022-07-29T09:48:45.784Z,25.20
2022-07-29T09:51:28.323Z,25.40
2022-07-29T09:54:24.520Z,25.40
2022-07-29T09:56:51.259Z,25.40
2022-07-29T09:59:18.095Z,25.50
2022-07-29T10:01:44.823Z,25.60
2022-07-29T10:04:11.600Z,25.50
2022-07-29T10:07:08.994Z,25.50
2022-07-29T10:09:36.538Z,25.70
2022-07-29T10:12:04.354Z,25.70
2022-07-29T10:14:32.128Z,25.80
2022-07-29T10:17:00.134Z,25.90
2022-07-29T10:19:26.904Z,25.90
2022-07-29T10:21:57.935Z,25.90
2022-07-29T10:24:26.983Z,25.80
2022-07-29T10:26:55.430Z,25.90
2022-07-29T10:29:22.126Z,25.90
2022-07-29T10:32:07.818Z,25.80
2022-07-29T10:34:54.728Z,25.50
2022-07-29T10:37:29.746Z,25.40
2022-07-29T10:40:02.222Z,25.40
2022-07-29T10:42:34.085Z,25.40
2022-07-29T10:45:02.692Z,25.30
2022-07-29T10:47:31.500Z,25.20
2022-07-29T10:49:59.191Z,25.20
2022-07-29T10:52:46.670Z,25.10
2022-07-29T10:55:33.060Z,25.10
2022-07-29T10:58:26.327Z,25.10
2022-07-29T11:00:54.555Z,25.20
2022-07-29T11:03:40.259Z,25.20
2022-07-29T11:06:17.925Z,25.20
2022-07-29T11:08:45.351Z,25.30
2022-07-29T11:11:19.731Z,25.50
2022-07-29T11:13:51.471Z,25.70
2022-07-29T11:16:20.273Z,25.80
2022-07-29T11:19:06.774Z,25.90
2022-07-29T11:21:54.203Z,26.00
2022-07-29T11:24:32.192Z,26.20
2022-07-29T11:27:08.522Z,26.50
2022-07-29T11:29:40.081Z,26.40
2022-07-29T11:32:15.927Z,26.40
2022-07-29T11:34:49.956Z,26.30
2022-07-29T11:37:17.998Z,26.40
2022-07-29T11:40:01.504Z,26.50
2022-07-29T11:42:34.185Z,26.60
2022-07-29T11:47:55.661Z,26.80
2022-07-29T11:50:28.564Z,26.40
2022-07-29T11:52:55.643Z,26.30
2022-07-29T11:55:23.973Z,26.30
2022-07-29T11:58:03.982Z,26.60
2022-07-29T12:00:48.989Z,26.60
2022-07-29T12:06:14.972Z,26.60
2022-07-29T12:08:43.623Z,26.60
2022-07-29T12:11:17.775Z,26.60
2022-07-29T12:13:47.725Z,26.60
2022-07-29T12:16:16.490Z,26.40
2022-07-29T12:19:03.793Z,26.30
2022-07-29T12:21:49.433Z,26.30
2022-07-29T12:24:23.260Z,26.40
2022-07-29T12:26:57.802Z,26.40
2022-07-29T12:29:34.685Z,26.40
2022-07-29T12:32:03.848Z,26.20
2022-07-29T12:34:31.266Z,26.20
2022-07-29T12:36:58.126Z,26.10
2022-07-29T12:39:27.510Z,26.20
2022-07-29T12:42:04.039Z,26.20
2022-07-29T12:44:47.447Z,26.10
2022-07-29T12:47:14.386Z,26.20
2022-07-29T12:49:41.252Z,26.10
2022-07-29T12:52:37.499Z,26.10
2022-07-29T12:55:04.630Z,26.10
2022-07-29T12:57:32.633Z,26.10
2022-07-29T13:00:09.010Z,26.20
2022-07-29T13:02:35.851Z,26.30
2022-07-29T13:05:05.191Z,26.40
2022-07-29T13:07:55.699Z,26.40
2022-07-29T13:10:24.257Z,26.40
2022-07-29T13:13:04.961Z,26.60
2022-07-29T13:15:32.028Z,26.60
2022-07-29T13:17:58.991Z,26.60
2022-07-29T13:20:28.382Z,26.60
2022-07-29T13:22:55.130Z,26.60
2022-07-29T13:25:32.840Z,26.60
2022-07-29T13:28:00.507Z,26.50
2022-07-29T13:30:27.356Z,26.30
2022-07-29T13:32:54.169Z,26.30
2022-07-29T13:35:21.263Z,26.30
2022-07-29T13:37:48.598Z,26.20
2022-07-29T13:40:18.736Z,26.20
2022-07-29T13:42:45.544Z,26.30
2022-07-29T13:45:14.199Z,26.40
2022-07-29T13:47:43.607Z,26.60
2022-07-29T13:50:14.760Z,26.70
2022-07-29T13:52:41.539Z,26.70
2022-07-29T13:55:09.176Z,26.80
2022-07-29T13:57:36.491Z,26.80
2022-07-29T14:00:03.690Z,26.80
2022-07-29T14:02:30.435Z,26.70
2022-07-29T14:04:57.409Z,26.50
2022-07-29T14:07:24.208Z,26.20
2022-07-29T14:09:51.457Z,26.10
2022-07-29T14:12:18.557Z,26.20
2022-07-29T14:14:47.177Z,26.40
2022-07-29T14:17:14.509Z,26.70
2022-07-29T14:19:41.339Z,27.10
2022-07-29T14:22:09.464Z,27.60
2022-07-29T14:24:37.981Z,27.90
2022-07-29T14:27:05.340Z,27.90
2022-07-29T14:29:36.923Z,28.00
2022-07-29T14:32:06.240Z,28.00
2022-07-29T14:34:34.426Z,28.00
2022-07-29T14:37:01.127Z,28.10
2022-07-29T14:39:32.004Z,28.10
2022-07-29T14:41:59.271Z,27.80
2022-07-29T14:44:31.995Z,27.50
2022-07-29T14:47:07.663Z,27.40
2022-07-29T14:49:34.664Z,27.40
2022-07-29T14:52:01.626Z,27.40
2022-07-29T14:54:28.444Z,27.40
2022-07-29T14:56:58.033Z,27.30
2022-07-29T14:59:25.506Z,27.20
2022-07-29T15:01:52.267Z,26.90
2022-07-29T15:04:19.039Z,26.70
2022-07-29T15:06:45.856Z,26.60
2022-07-29T15:09:12.893Z,26.50
2022-07-29T15:11:39.687Z,26.30
2022-07-29T15:14:06.982Z,26.40
2022-07-29T15:16:34.139Z,26.30
2022-07-29T15:19:02.040Z,26.40
2022-07-29T15:21:28.759Z,26.40
2022-07-29T15:23:55.463Z,26.50
2022-07-29T15:26:22.403Z,26.40
2022-07-29T15:28:49.235Z,26.50
2022-07-29T15:31:16.051Z,26.70
2022-07-29T15:33:42.843Z,26.70
2022-07-29T15:36:09.690Z,26.60
2022-07-29T15:38:41.769Z,26.50
2022-07-29T15:41:08.972Z,26.50
2022-07-29T15:43:38.611Z,26.40
2022-07-29T15:46:24.124Z,26.60
2022-07-29T15:48:50.892Z,26.60
2022-07-29T15:51:17.628Z,26.40
2022-07-29T15:53:44.435Z,26.50
2022-07-29T15:56:20.430Z,26.50
2022-07-29T15:58:47.249Z,26.70
2022-07-29T16:01:14.064Z,26.70
2022-07-29T16:03:45.714Z,26.80
2022-07-29T16:06:12.989Z,26.80
2022-07-29T16:08:39.687Z,27.00
2022-07-29T16:11:06.369Z,27.00
2022-07-29T16:13:33.091Z,27.00
2022-07-29T16:16:02.569Z,26.90
2022-07-29T16:18:30.282Z,26.90
2022-07-29T16:20:57.767Z,26.80
2022-07-29T16:23:25.323Z,26.90
2022-07-29T16:26:00.816Z,27.10
2022-07-29T16:28:28.552Z,27.20
2022-07-29T16:30:55.354Z,27.20
2022-07-29T16:33:22.163Z,27.00
2022-07-29T16:35:48.991Z,26.90
2022-07-29T16:38:15.878Z,26.60
2022-07-29T16:40:42.662Z,26.50
2022-07-29T16:43:09.412Z,26.40
2022-07-29T16:45:39.481Z,26.30
2022-07-29T16:48:13.975Z,26.30
2022-07-29T16:50:41.024Z,26.30
2022-07-29T16:53:10.332Z,26.10
2022-07-29T16:55:37.218Z,26.00
2022-07-29T16:58:03.920Z,26.00
2022-07-29T17:00:30.757Z,26.00
2022-07-29T17:02:57.613Z,25.90
2022-07-29T17:05:24.406Z,25.80
2022-07-29T17:07:51.159Z,25.70
2022-07-29T17:10:18.103Z,25.60
2022-07-29T17:12:45.091Z,25.40
2022-07-29T17:15:12.422Z,25.40
2022-07-29T17:17:55.127Z,25.40
2022-07-29T17:20:23.771Z,25.30
2022-07-29T17:22:50.496Z,24.90
2022-07-29T17:25:20.551Z,24.60
2022-07-29T17:27:49.479Z,24.50
2022-07-29T17:30:16.245Z,24.20
2022-07-29T17:32:42.917Z,23.90
2022-07-29T17:35:28.242Z,23.80
2022-07-29T17:37:55.286Z,23.90
2022-07-29T17:40:22.083Z,23.80
2022-07-29T17:42:48.843Z,23.60
2022-07-29T17:45:15.541Z,23.60
2022-07-29T17:47:42.260Z,23.70
2022-07-29T17:50:09.096Z,23.80
2022-07-29T17:52:35.811Z,23.50
2022-07-29T17:55:02.682Z,23.20
2022-07-29T17:57:29.451Z,22.90
2022-07-29T17:59:56.167Z,22.60
2022-07-29T18:02:22.940Z,22.70
2022-07-29T18:04:53.251Z,22.90
2022-07-29T18:07:20.017Z,22.90
2022-07-29T18:09:46.732Z,22.90
2022-07-29T18:12:13.419Z,22.60
2022-07-29T18:14:40.183Z,22.40
2022-07-29T18:17:06.941Z,22.50
2022-07-29T18:19:33.666Z,22.50
2022-07-29T18:22:04.898Z,22.30
2022-07-29T18:24:31.821Z,22.20
2022-07-29T18:26:58.739Z,22.20
2022-07-29T18:29:25.676Z,22.10
2022-07-29T18:31:55.466Z,22.00
2022-07-29T18:34:22.193Z,21.80
2022-07-29T18:36:48.885Z,21.70
2022-07-29T18:39:20.669Z,21.50
2022-07-29T18:41:50.201Z,21.30
2022-07-29T18:44:17.698Z,21.30
2022-07-29T18:46:47.206Z,21.50
2022-07-29T18:49:14.845Z,21.50
2022-07-29T18:51:41.627Z,21.50
2022-07-29T18:54:10.065Z,21.50
2022-07-29T18:56:37.290Z,21.70
2022-07-29T18:59:04.407Z,21.50
2022-07-29T19:01:31.655Z,21.20
2022-07-29T19:03:59.011Z,21.00
2022-07-29T19:06:26.054Z,21.00
2022-07-29T19:08:52.983Z,21.20
2022-07-29T19:11:19.736Z,21.30
2022-07-29T19:13:46.437Z,21.40
2022-07-29T19:16:14.208Z,21.10
2022-07-29T19:18:41.478Z,20.80
2022-07-29T19:21:08.209Z,20.70
2022-07-29T19:24:01.807Z,20.70
2022-07-29T19:26:21.680Z,20.80
2022-07-29T19:28:48.910Z,20.80
2022-07-29T19:31:15.998Z,20.80
2022-07-29T19:33:42.860Z,20.80
2022-07-29T19:36:09.699Z,20.80
2022-07-29T19:38:38.255Z,21.00
2022-07-29T19:41:06.281Z,21.10
2022-07-29T19:43:50.353Z,21.10
2022-07-29T19:46:19.996Z,21.00
2022-07-29T19:48:46.779Z,20.80
2022-07-29T19:51:13.568Z,20.80
2022-07-29T19:53:40.348Z,20.90
2022-07-29T19:56:08.992Z,21.00
2022-07-29T19:58:36.118Z,21.10
2022-07-29T20:01:03.020Z,21.00
2022-07-29T20:03:39.692Z,20.80
2022-07-29T20:06:07.468Z,20.80
2022-07-29T20:08:34.412Z,20.80
2022-07-29T20:11:01.154Z,20.90
2022-07-29T20:13:27.896Z,21.00
2022-07-29T20:15:54.645Z,21.10
2022-07-29T20:18:21.408Z,21.20
2022-07-29T20:20:49.590Z,21.10
2022-07-29T20:23:17.108Z,21.00
2022-07-29T20:25:44.352Z,20.80
2022-07-29T20:28:11.178Z,20.70
2022-07-29T20:30:38.576Z,20.60
2022-07-29T20:33:05.791Z,20.40
2022-07-29T20:35:32.639Z,20.20
2022-07-29T20:38:00.410Z,20.30
2022-07-29T20:40:27.634Z,20.10
2022-07-29T20:42:55.050Z,20.10
2022-07-29T20:45:22.555Z,20.30
2022-07-29T20:47:50.734Z,20.40
2022-07-29T20:50:18.402Z,20.40
2022-07-29T20:52:45.179Z,20.40
2022-07-29T20:55:11.867Z,20.30
2022-07-29T20:57:39.845Z,20.20
2022-07-29T21:00:07.379Z,20.00
2022-07-29T21:02:34.291Z,19.90
2022-07-29T21:05:01.186Z,19.80
2022-07-29T21:07:28.009Z,19.80
2022-07-29T21:09:54.684Z,19.60
2022-07-29T21:12:21.503Z,19.60
2022-07-29T21:14:48.256Z,19.50
2022-07-29T21:17:15.638Z,19.70
2022-07-29T21:19:42.623Z,19.70
2022-07-29T21:22:09.523Z,19.50
2022-07-29T21:24:36.517Z,19.20
2022-07-29T21:27:22.085Z,19.20
2022-07-29T21:29:49.468Z,19.20
2022-07-29T21:32:29.793Z,19.20
2022-07-29T21:34:57.423Z,19.00
2022-07-29T21:37:24.186Z,19.10
2022-07-29T21:39:51.113Z,19.10
2022-07-29T21:42:17.912Z,19.10
2022-07-29T21:44:44.751Z,19.00
2022-07-29T21:47:11.948Z,18.90
2022-07-29T21:49:38.789Z,18.80
2022-07-29T21:52:05.662Z,19.00
2022-07-29T21:54:34.800Z,19.20
2022-07-29T21:57:01.821Z,19.40
2022-07-29T21:59:29.543Z,19.40
2022-07-29T22:01:56.547Z,19.20
2022-07-29T22:04:23.393Z,19.00
2022-07-29T22:06:50.233Z,18.80
2022-07-29T22:09:16.935Z,19.00
2022-07-29T22:11:43.736Z,18.80
2022-07-29T22:14:10.454Z,18.80
2022-07-29T22:16:37.316Z,18.80
2022-07-29T22:19:04.311Z,19.00
2022-07-29T22:21:31.153Z,19.10
2022-07-29T22:23:58.055Z,19.10
2022-07-29T22:26:24.987Z,19.00
2022-07-29T22:28:51.945Z,19.00
2022-07-29T22:31:18.788Z,18.90
2022-07-29T22:33:45.590Z,19.00
2022-07-29T22:36:12.626Z,19.00
2022-07-29T22:38:39.377Z,18.80
2022-07-29T22:41:06.144Z,18.90
2022-07-29T22:43:32.849Z,18.60
2022-07-29T22:45:59.671Z,18.20
2022-07-29T22:48:26.433Z,18.00
2022-07-29T22:50:53.126Z,18.20
2022-07-29T22:53:19.862Z,18.30
2022-07-29T22:55:46.603Z,18.30
2022-07-29T22:58:13.297Z,18.10
2022-07-29T23:00:40.034Z,17.90
2022-07-29T23:03:06.895Z,18.00
2022-07-29T23:05:33.726Z,18.10
2022-07-29T23:08:00.503Z,18.20
2022-07-29T23:10:27.293Z,18.20
2022-07-29T23:12:54.004Z,18.20
2022-07-29T23:15:20.870Z,18.20
2022-07-29T23:17:47.562Z,18.30
2022-07-29T23:20:15.008Z,18.30
2022-07-29T23:22:41.898Z,18.20
2022-07-29T23:25:08.803Z,17.90
2022-07-29T23:27:35.571Z,17.90
2022-07-29T23:30:02.744Z,17.70
2022-07-29T23:32:29.560Z,17.90
2022-07-29T23:34:56.277Z,17.90
2022-07-29T23:37:23.154Z,17.70
2022-07-29T23:39:49.877Z,17.50
2022-07-29T23:42:16.570Z,17.30
2022-07-29T23:44:43.320Z,17.40
2022-07-29T23:47:10.005Z,17.50
2022-07-29T23:49:36.686Z,17.60
2022-07-29T23:52:03.521Z,17.70
2022-07-29T23:54:30.262Z,17.80
2022-07-29T23:57:00.240Z,17.80
2022-07-29T23:59:27.211Z,17.60
